createdAt,value
2019-02-24T00:01:48.003Z,4.50
2019-02-24T00:04:18.434Z,4.50
2019-02-24T00:06:48.922Z,4.50
2019-02-24T00:09:19.383Z,4.40
2019-02-24T00:11:49.849Z,4.40
2019-02-24T00:14:20.309Z,4.30
2019-02-24T00:16:50.896Z,4.30
2019-02-24T00:19:21.389Z,4.20
2019-02-24T00:21:51.841Z,4.20
2019-02-24T00:24:22.295Z,4.20
2019-02-24T00:26:52.875Z,4.10
2019-02-24T00:29:23.456Z,4.10
2019-02-24T00:31:53.913Z,4.10
2019-02-24T00:34:24.482Z,4.00
2019-02-24T00:36:54.956Z,4.00
2019-02-24T00:39:25.531Z,4.00
2019-02-24T00:41:56.059Z,3.90
2019-02-24T00:44:26.646Z,3.90
2019-02-24T00:46:57.073Z,3.90
2019-02-24T00:49:27.558Z,3.80
2019-02-24T00:51:58.024Z,3.80
2019-02-24T00:54:28.488Z,3.80
2019-02-24T00:56:58.970Z,3.80
2019-02-24T00:59:29.485Z,3.80
2019-02-24T01:02:00.023Z,3.70
2019-02-24T01:04:30.651Z,3.80
2019-02-24T01:07:01.174Z,3.70
2019-02-24T01:09:31.634Z,3.70
2019-02-24T01:12:02.072Z,3.70
2019-02-24T01:14:32.564Z,3.70
2019-02-24T01:17:03.226Z,3.70
2019-02-24T01:19:33.668Z,3.70
2019-02-24T01:22:04.150Z,3.70
2019-02-24T01:24:34.592Z,3.60
2019-02-24T01:27:05.059Z,3.60
2019-02-24T01:29:35.511Z,3.50
2019-02-24T01:32:06.040Z,3.60
2019-02-24T01:34:36.471Z,3.50
2019-02-24T01:37:06.934Z,3.50
2019-02-24T01:39:37.404Z,3.50
2019-02-24T01:42:07.846Z,3.50
2019-02-24T01:44:38.327Z,3.50
2019-02-24T01:47:08.780Z,3.40
2019-02-24T01:49:39.257Z,3.40
2019-02-24T01:52:09.716Z,3.40
2019-02-24T01:54:40.205Z,3.30
2019-02-24T01:57:10.638Z,3.30
2019-02-24T01:59:41.117Z,3.20
2019-02-24T02:02:11.570Z,3.20
2019-02-24T02:04:42.048Z,3.20
2019-02-24T02:07:12.633Z,3.10
2019-02-24T02:09:43.074Z,3.10
2019-02-24T02:12:13.550Z,3.00
2019-02-24T02:14:43.996Z,3.00
2019-02-24T02:17:14.470Z,3.00
2019-02-24T02:19:44.958Z,2.90
2019-02-24T02:22:15.434Z,2.90
2019-02-24T02:24:45.894Z,2.90
2019-02-24T02:27:16.368Z,2.80
2019-02-24T02:29:46.804Z,2.80
2019-02-24T02:32:17.305Z,2.80
2019-02-24T02:34:47.780Z,2.80
2019-02-24T02:37:18.221Z,2.70
2019-02-24T02:39:48.692Z,2.70
2019-02-24T02:42:19.137Z,2.70
2019-02-24T02:44:49.616Z,2.70
2019-02-24T02:47:20.085Z,2.60
2019-02-24T02:49:50.543Z,2.60
2019-02-24T02:52:21.058Z,2.60
2019-02-24T02:54:51.548Z,2.50
2019-02-24T02:57:22.130Z,2.50
2019-02-24T02:59:52.613Z,2.50
2019-02-24T03:02:24.683Z,2.50
2019-02-24T03:04:55.496Z,2.50
2019-02-24T03:07:47.794Z,2.50
2019-02-24T03:10:18.295Z,2.50
2019-02-24T03:12:48.770Z,2.50
2019-02-24T03:15:19.223Z,2.50
2019-02-24T03:17:49.695Z,2.50
2019-02-24T03:20:20.169Z,2.50
2019-02-24T03:22:50.586Z,2.50
2019-02-24T03:25:21.071Z,2.40
2019-02-24T03:27:51.596Z,2.40
2019-02-24T03:30:22.168Z,2.40
2019-02-24T03:32:52.717Z,2.40
2019-02-24T03:35:23.251Z,2.30
2019-02-24T03:37:53.695Z,2.30
2019-02-24T03:40:24.118Z,2.30
2019-02-24T03:42:54.668Z,2.20
2019-02-24T03:45:25.127Z,2.20
2019-02-24T03:47:55.605Z,2.20
2019-02-24T03:50:26.055Z,2.20
2019-02-24T03:52:56.526Z,2.20
2019-02-24T03:55:26.991Z,2.20
2019-02-24T03:57:57.566Z,2.20
2019-02-24T04:00:27.993Z,2.10
2019-02-24T04:02:58.451Z,2.10
2019-02-24T04:05:28.911Z,2.00
2019-02-24T04:07:59.341Z,2.00
2019-02-24T04:10:29.810Z,2.00
2019-02-24T04:13:00.282Z,2.00
2019-02-24T04:15:30.744Z,2.00
2019-02-24T04:18:02.207Z,2.00
2019-02-24T04:20:32.673Z,2.00
2019-02-24T04:23:03.098Z,1.90
2019-02-24T04:25:33.671Z,2.00
2019-02-24T04:28:04.153Z,2.00
2019-02-24T04:30:34.575Z,2.00
2019-02-24T04:33:05.141Z,2.00
2019-02-24T04:35:35.589Z,2.00
2019-02-24T04:38:06.055Z,2.00
2019-02-24T04:40:36.518Z,2.00
2019-02-24T04:43:06.967Z,1.90
2019-02-24T04:45:37.458Z,1.90
2019-02-24T04:48:07.907Z,1.90
2019-02-24T04:50:38.488Z,1.90
2019-02-24T04:53:08.914Z,1.90
2019-02-24T04:55:39.371Z,1.90
2019-02-24T04:58:09.817Z,1.80
2019-02-24T05:00:40.279Z,1.80
2019-02-24T05:03:10.743Z,1.80
2019-02-24T05:05:41.193Z,1.80
2019-02-24T05:08:11.666Z,1.80
2019-02-24T05:10:42.081Z,1.80
2019-02-24T05:13:12.595Z,1.70
2019-02-24T05:15:43.100Z,1.70
2019-02-24T05:18:13.561Z,1.70
2019-02-24T05:20:44.015Z,1.70
2019-02-24T05:23:14.495Z,1.80
2019-02-24T05:25:44.976Z,1.80
2019-02-24T05:28:15.421Z,1.80
2019-02-24T05:30:45.853Z,1.70
2019-02-24T05:33:16.302Z,1.70
2019-02-24T05:35:46.740Z,1.70
2019-02-24T05:38:17.203Z,1.60
2019-02-24T05:40:47.645Z,1.60
2019-02-24T05:43:18.104Z,1.60
2019-02-24T05:45:48.595Z,1.60
2019-02-24T05:48:19.061Z,1.60
2019-02-24T05:50:49.529Z,1.60
2019-02-24T05:53:19.970Z,1.60
2019-02-24T05:55:50.424Z,1.50
2019-02-24T05:58:21.060Z,1.50
2019-02-24T06:00:51.614Z,1.50
2019-02-24T06:03:22.139Z,1.50
2019-02-24T06:05:52.676Z,1.50
2019-02-24T06:08:23.125Z,1.50
2019-02-24T06:10:53.675Z,1.50
2019-02-24T06:13:24.200Z,1.50
2019-02-24T06:15:54.815Z,1.40
2019-02-24T06:18:25.374Z,1.40
2019-02-24T06:20:55.816Z,1.40
2019-02-24T06:23:26.251Z,1.40
2019-02-24T06:25:56.774Z,1.40
2019-02-24T06:28:27.416Z,1.30
2019-02-24T06:30:57.854Z,1.40
2019-02-24T06:33:28.351Z,1.30
2019-02-24T06:35:58.822Z,1.30
2019-02-24T06:38:29.354Z,1.30
2019-02-24T06:41:00.022Z,1.20
2019-02-24T06:43:30.579Z,1.20
2019-02-24T06:46:01.057Z,1.20
2019-02-24T06:48:31.510Z,1.20
2019-02-24T06:51:04.616Z,1.20
2019-02-24T06:53:35.152Z,1.10
2019-02-24T06:56:05.723Z,1.10
2019-02-24T06:58:36.214Z,1.20
2019-02-24T07:01:07.088Z,1.20
2019-02-24T07:03:37.566Z,1.20
2019-02-24T07:06:08.042Z,1.20
2019-02-24T07:08:38.547Z,1.20
2019-02-24T07:11:09.102Z,1.20
2019-02-24T07:13:39.562Z,1.20
2019-02-24T07:16:10.069Z,1.20
2019-02-24T07:18:40.723Z,1.20
2019-02-24T07:21:11.312Z,1.20
2019-02-24T07:23:41.804Z,1.30
2019-02-24T07:26:12.395Z,1.30
2019-02-24T07:28:42.875Z,1.30
2019-02-24T07:31:13.316Z,1.40
2019-02-24T07:33:43.855Z,1.40
2019-02-24T07:36:17.001Z,1.50
2019-02-24T07:38:48.058Z,1.50
2019-02-24T07:41:18.541Z,1.60
2019-02-24T07:43:49.146Z,1.60
2019-02-24T07:46:19.672Z,1.70
2019-02-24T07:48:50.255Z,1.70
2019-02-24T07:51:21.793Z,1.80
2019-02-24T07:53:52.304Z,1.80
2019-02-24T07:56:22.929Z,1.90
2019-02-24T07:58:53.510Z,2.00
2019-02-24T08:01:23.985Z,2.10
2019-02-24T08:03:54.611Z,2.10
2019-02-24T08:06:25.235Z,2.20
2019-02-24T08:08:55.814Z,2.40
2019-02-24T08:11:26.274Z,2.50
2019-02-24T08:13:56.726Z,2.60
2019-02-24T08:16:27.200Z,2.80
2019-02-24T08:18:57.640Z,3.00
2019-02-24T08:21:28.177Z,3.20
2019-02-24T08:23:58.653Z,3.30
2019-02-24T08:26:29.123Z,3.50
2019-02-24T08:28:59.586Z,3.70
2019-02-24T08:31:30.036Z,4.00
2019-02-24T08:34:00.504Z,4.10
2019-02-24T08:36:31.006Z,4.30
2019-02-24T08:39:01.483Z,4.50
2019-02-24T08:41:31.916Z,4.70
2019-02-24T08:44:02.370Z,4.80
2019-02-24T08:46:32.822Z,5.00
2019-02-24T08:49:03.361Z,5.10
2019-02-24T08:51:33.845Z,5.20
2019-02-24T08:54:04.322Z,5.40
2019-02-24T08:56:34.758Z,5.50
2019-02-24T08:59:05.238Z,5.70
2019-02-24T09:01:35.681Z,5.80
2019-02-24T09:04:06.130Z,6.00
2019-02-24T09:06:36.610Z,6.10
2019-02-24T09:09:07.521Z,6.30
2019-02-24T09:11:38.005Z,6.60
2019-02-24T09:14:08.492Z,6.70
2019-02-24T09:16:38.973Z,6.90
2019-02-24T09:19:09.584Z,7.10
2019-02-24T09:21:40.029Z,7.30
2019-02-24T09:24:10.557Z,7.50
2019-02-24T09:26:40.995Z,7.70
2019-02-24T09:29:11.512Z,7.90
2019-02-24T09:31:41.976Z,8.10
2019-02-24T09:34:12.455Z,8.30
2019-02-24T09:36:43.026Z,8.50
2019-02-24T09:39:13.518Z,8.60
2019-02-24T09:41:44.011Z,8.80
2019-02-24T09:44:14.529Z,9.00
2019-02-24T09:46:45.023Z,9.20
2019-02-24T09:49:15.578Z,9.30
2019-02-24T09:51:46.162Z,9.50
2019-02-24T09:54:16.618Z,9.70
2019-02-24T09:56:47.177Z,9.80
2019-02-24T09:59:17.640Z,10.00
2019-02-24T10:01:48.237Z,10.20
2019-02-24T10:04:18.705Z,10.40
2019-02-24T10:06:49.319Z,10.50
2019-02-24T10:09:19.821Z,10.60
2019-02-24T10:11:50.369Z,10.80
2019-02-24T10:14:20.909Z,10.90
2019-02-24T10:16:51.558Z,10.90
2019-02-24T10:19:22.511Z,11.00
2019-02-24T10:21:53.034Z,11.20
2019-02-24T10:24:23.643Z,11.40
2019-02-24T10:26:54.187Z,11.50
2019-02-24T10:29:24.830Z,11.60
2019-02-24T10:31:55.427Z,11.70
2019-02-24T10:34:25.991Z,11.70
2019-02-24T10:37:06.613Z,11.80
2019-02-24T10:39:37.186Z,11.80
2019-02-24T10:42:07.725Z,11.90
2019-02-24T10:44:38.267Z,12.00
2019-02-24T10:47:08.893Z,12.10
2019-02-24T10:49:39.458Z,12.20
2019-02-24T10:52:10.060Z,12.30
2019-02-24T10:54:40.524Z,12.40
2019-02-24T10:57:13.076Z,12.50
2019-02-24T10:59:43.673Z,12.60
2019-02-24T11:02:14.223Z,12.80
2019-02-24T11:04:44.738Z,12.90
2019-02-24T11:07:15.272Z,13.00
2019-02-24T11:09:45.880Z,13.20
2019-02-24T11:12:16.455Z,13.30
2019-02-24T11:14:47.036Z,13.40
2019-02-24T11:17:17.649Z,13.50
2019-02-24T11:19:48.273Z,13.70
2019-02-24T11:22:18.812Z,13.80
2019-02-24T11:24:49.335Z,13.90
2019-02-24T11:27:19.909Z,14.10
2019-02-24T11:29:50.431Z,14.20
2019-02-24T11:32:21.069Z,14.40
2019-02-24T11:34:51.815Z,14.60
2019-02-24T11:37:22.365Z,14.80
2019-02-24T11:39:52.980Z,14.90
2019-02-24T11:42:23.651Z,15.10
2019-02-24T11:44:54.205Z,15.20
2019-02-24T11:47:24.921Z,15.30
2019-02-24T11:49:55.627Z,15.40
2019-02-24T11:52:26.149Z,15.50
2019-02-24T11:54:56.745Z,15.50
2019-02-24T11:57:27.307Z,15.60
2019-02-24T12:00:59.730Z,15.70
2019-02-24T12:04:28.917Z,15.80
2019-02-24T12:07:37.457Z,15.90
2019-02-24T12:09:47.173Z,16.10
2019-02-24T12:12:17.697Z,16.20
2019-02-24T12:14:48.294Z,16.30
2019-02-24T12:17:18.810Z,16.30
2019-02-24T12:19:49.385Z,16.40
2019-02-24T12:22:19.891Z,16.40
2019-02-24T12:24:50.452Z,16.50
2019-02-24T12:27:21.060Z,16.50
2019-02-24T12:29:51.833Z,16.60
2019-02-24T12:32:22.294Z,16.60
2019-02-24T12:34:52.948Z,16.60
2019-02-24T12:37:23.440Z,16.60
2019-02-24T12:39:53.929Z,16.60
2019-02-24T12:42:24.391Z,16.70
2019-02-24T12:44:54.963Z,16.70
2019-02-24T12:47:25.679Z,16.60
2019-02-24T12:50:03.013Z,16.70
2019-02-24T12:52:28.368Z,16.60
2019-02-24T12:54:58.916Z,16.60
2019-02-24T12:57:29.479Z,16.50
2019-02-24T12:59:59.979Z,16.40
2019-02-24T13:02:30.491Z,16.30
2019-02-24T13:05:01.026Z,16.30
2019-02-24T13:07:31.500Z,16.20
2019-02-24T13:10:02.141Z,16.10
2019-02-24T13:12:33.632Z,16.00
2019-02-24T13:15:04.139Z,15.90
2019-02-24T13:17:34.589Z,15.90
2019-02-24T13:20:05.392Z,15.80
2019-02-24T13:22:35.937Z,15.60
2019-02-24T13:25:07.050Z,15.40
2019-02-24T13:27:37.496Z,15.30
2019-02-24T13:30:08.350Z,15.30
2019-02-24T13:32:38.818Z,15.30
2019-02-24T13:35:09.533Z,15.20
2019-02-24T13:37:40.036Z,15.20
2019-02-24T13:40:10.721Z,15.10
2019-02-24T13:42:41.226Z,15.10
2019-02-24T13:45:13.712Z,15.10
2019-02-24T13:47:44.189Z,15.00
2019-02-24T13:50:15.797Z,15.10
2019-02-24T13:52:46.484Z,15.10
2019-02-24T13:55:17.031Z,15.10
2019-02-24T13:57:47.510Z,15.00
2019-02-24T14:00:18.185Z,15.10
2019-02-24T14:02:48.704Z,15.00
2019-02-24T14:05:19.172Z,15.00
2019-02-24T14:07:49.737Z,15.00
2019-02-24T14:10:20.231Z,15.00
2019-02-24T14:12:50.728Z,15.00
2019-02-24T14:15:21.163Z,15.00
2019-02-24T14:17:51.829Z,14.90
2019-02-24T14:20:22.290Z,15.00
2019-02-24T14:22:53.321Z,15.00
2019-02-24T14:25:23.859Z,14.90
2019-02-24T14:27:54.443Z,14.90
2019-02-24T14:30:24.895Z,14.90
2019-02-24T14:32:55.558Z,15.00
2019-02-24T14:35:26.083Z,14.90
2019-02-24T14:37:56.580Z,14.90
2019-02-24T14:40:27.047Z,14.90
2019-02-24T14:42:57.489Z,14.90
2019-02-24T14:45:28.049Z,14.90
2019-02-24T14:47:58.509Z,14.90
2019-02-24T14:50:29.006Z,14.90
2019-02-24T14:52:59.617Z,14.90
2019-02-24T14:55:30.080Z,14.90
2019-02-24T14:58:00.520Z,14.90
2019-02-24T15:00:31.005Z,14.90
2019-02-24T15:03:01.453Z,14.90
2019-02-24T15:05:31.921Z,14.90
2019-02-24T15:08:02.355Z,14.90
2019-02-24T15:10:32.833Z,14.90
2019-02-24T15:13:03.281Z,14.80
2019-02-24T15:15:33.876Z,14.90
2019-02-24T15:18:04.445Z,14.90
2019-02-24T15:20:34.900Z,14.90
2019-02-24T15:23:07.645Z,14.90
2019-02-24T15:26:02.590Z,14.90
2019-02-24T15:28:33.061Z,14.90
2019-02-24T15:31:03.554Z,14.90
2019-02-24T15:33:34.032Z,14.90
2019-02-24T15:36:04.509Z,14.90
2019-02-24T15:38:34.962Z,14.90
2019-02-24T15:41:05.504Z,14.90
2019-02-24T15:43:35.986Z,14.90
2019-02-24T15:46:06.631Z,14.90
2019-02-24T15:48:39.419Z,14.80
2019-02-24T15:51:09.867Z,14.80
2019-02-24T15:53:40.390Z,14.80
2019-02-24T15:56:10.908Z,14.80
2019-02-24T15:58:41.347Z,14.70
2019-02-24T16:01:11.888Z,14.70
2019-02-24T16:03:42.735Z,14.70
2019-02-24T16:06:13.209Z,14.70
2019-02-24T16:08:43.642Z,14.70
2019-02-24T16:11:14.098Z,14.60
2019-02-24T16:13:44.578Z,14.60
2019-02-24T16:16:15.070Z,14.60
2019-02-24T16:18:45.610Z,14.50
2019-02-24T16:21:16.111Z,14.50
2019-02-24T16:23:46.588Z,14.50
2019-02-24T16:26:17.039Z,14.50
2019-02-24T16:28:47.527Z,14.50
2019-02-24T16:31:17.970Z,14.40
2019-02-24T16:33:48.433Z,14.40
2019-02-24T16:36:21.832Z,14.40
2019-02-24T16:38:52.259Z,14.30
2019-02-24T16:41:22.969Z,14.30
2019-02-24T16:43:53.417Z,14.20
2019-02-24T16:46:23.938Z,14.10
2019-02-24T16:48:54.467Z,14.00
2019-02-24T16:51:25.005Z,13.90
2019-02-24T16:53:55.628Z,13.80
2019-02-24T16:56:26.078Z,13.70
2019-02-24T16:58:56.637Z,13.70
2019-02-24T17:01:27.557Z,13.60
2019-02-24T17:03:58.094Z,13.60
2019-02-24T17:06:28.628Z,13.60
2019-02-24T17:09:02.550Z,13.50
2019-02-24T17:11:31.422Z,13.50
2019-02-24T17:14:01.886Z,13.40
2019-02-24T17:16:32.356Z,13.30
2019-02-24T17:19:02.925Z,13.20
2019-02-24T17:21:33.382Z,13.20
2019-02-24T17:24:03.842Z,13.10
2019-02-24T17:26:34.337Z,13.00
2019-02-24T17:29:04.944Z,12.90
2019-02-24T17:31:35.434Z,12.70
2019-02-24T17:34:05.874Z,12.60
2019-02-24T17:36:36.399Z,12.50
2019-02-24T17:39:08.510Z,12.40
2019-02-24T17:41:38.944Z,12.30
2019-02-24T17:44:09.476Z,12.30
2019-02-24T17:46:39.942Z,12.10
2019-02-24T17:49:10.374Z,12.00
2019-02-24T17:51:40.962Z,11.90
2019-02-24T17:54:11.580Z,11.80
2019-02-24T17:56:42.062Z,11.70
2019-02-24T17:59:12.533Z,11.60
2019-02-24T18:01:42.976Z,11.50
2019-02-24T18:04:13.558Z,11.40
2019-02-24T18:06:44.028Z,11.40
2019-02-24T18:09:14.515Z,11.30
2019-02-24T18:11:45.008Z,11.30
2019-02-24T18:14:15.574Z,11.30
2019-02-24T18:16:46.139Z,11.20
2019-02-24T18:19:16.585Z,11.10
2019-02-24T18:21:47.065Z,11.00
2019-02-24T18:24:17.534Z,11.00
2019-02-24T18:26:48.088Z,10.90
2019-02-24T18:29:19.568Z,10.80
2019-02-24T18:31:50.151Z,10.80
2019-02-24T18:34:20.641Z,10.80
2019-02-24T18:36:51.212Z,10.80
2019-02-24T18:39:21.808Z,10.70
2019-02-24T18:41:52.316Z,10.70
2019-02-24T18:44:22.959Z,10.60
2019-02-24T18:46:53.612Z,10.50
2019-02-24T18:49:25.775Z,10.30
2019-02-24T18:51:56.406Z,10.20
2019-02-24T18:54:34.496Z,10.10
2019-02-24T18:56:59.295Z,10.00
2019-02-24T18:59:30.823Z,9.90
2019-02-24T19:02:01.349Z,9.90
2019-02-24T19:04:31.827Z,9.80
2019-02-24T19:07:02.300Z,9.70
2019-02-24T19:09:32.836Z,9.70
2019-02-24T19:12:03.310Z,9.70
2019-02-24T19:14:33.744Z,9.70
2019-02-24T19:17:04.187Z,9.70
2019-02-24T19:19:34.703Z,9.70
2019-02-24T19:22:07.141Z,9.70
2019-02-24T19:24:37.385Z,9.70
2019-02-24T19:27:07.825Z,9.70
2019-02-24T19:29:38.319Z,9.70
2019-02-24T19:32:08.745Z,9.70
2019-02-24T19:34:39.278Z,9.60
2019-02-24T19:37:09.712Z,9.60
2019-02-24T19:39:40.186Z,9.60
2019-02-24T19:42:10.658Z,9.50
2019-02-24T19:44:41.182Z,9.50
2019-02-24T19:47:11.615Z,9.50
2019-02-24T19:49:42.078Z,9.40
2019-02-24T19:52:12.555Z,9.30
2019-02-24T19:54:43.344Z,9.30
2019-02-24T19:57:13.769Z,9.20
2019-02-24T19:59:44.219Z,9.10
2019-02-24T20:02:14.682Z,9.10
2019-02-24T20:04:45.183Z,9.00
2019-02-24T20:07:15.624Z,8.90
2019-02-24T20:09:46.099Z,8.80
2019-02-24T20:12:16.573Z,8.70
2019-02-24T20:14:46.992Z,8.70
2019-02-24T20:17:17.472Z,8.60
2019-02-24T20:19:47.998Z,8.50
2019-02-24T20:22:18.515Z,8.50
2019-02-24T20:24:49.064Z,8.40
2019-02-24T20:27:19.643Z,8.40
2019-02-24T20:29:50.158Z,8.30
2019-02-24T20:32:20.632Z,8.30
2019-02-24T20:34:52.301Z,8.30
2019-02-24T20:37:22.920Z,8.30
2019-02-24T20:39:53.500Z,8.20
2019-02-24T20:42:23.948Z,8.20
2019-02-24T20:44:56.519Z,8.10
2019-02-24T20:47:26.976Z,8.00
2019-02-24T20:49:57.451Z,7.90
2019-02-24T20:52:27.890Z,7.80
2019-02-24T20:54:58.413Z,7.80
2019-02-24T20:57:29.692Z,7.80
2019-02-24T21:00:00.352Z,7.70
2019-02-24T21:02:30.856Z,7.60
2019-02-24T21:05:01.326Z,7.50
2019-02-24T21:07:31.809Z,7.50
2019-02-24T21:10:02.271Z,7.40
2019-02-24T21:12:32.697Z,7.30
2019-02-24T21:15:03.182Z,7.20
2019-02-24T21:17:33.631Z,7.20
2019-02-24T21:20:04.888Z,7.10
2019-02-24T21:22:35.331Z,7.00
2019-02-24T21:25:06.373Z,7.00
2019-02-24T21:27:36.833Z,7.00
2019-02-24T21:30:08.413Z,6.90
2019-02-24T21:32:38.874Z,6.90
2019-02-24T21:35:09.619Z,6.90
2019-02-24T21:37:40.053Z,6.90
2019-02-24T21:40:11.461Z,6.80
2019-02-24T21:42:41.982Z,6.80
2019-02-24T21:45:15.589Z,6.70
2019-02-24T21:47:46.055Z,6.70
2019-02-24T21:50:16.993Z,6.70
2019-02-24T21:52:47.469Z,6.70
2019-02-24T21:55:18.191Z,6.60
2019-02-24T21:57:48.652Z,6.60
2019-02-24T22:00:21.362Z,6.60
2019-02-24T22:02:52.137Z,6.50
2019-02-24T22:05:22.740Z,6.50
2019-02-24T22:07:53.196Z,6.40
2019-02-24T22:10:23.914Z,6.40
2019-02-24T22:12:54.467Z,6.30
2019-02-24T22:15:24.971Z,6.30
2019-02-24T22:17:55.531Z,6.30
2019-02-24T22:20:25.981Z,6.20
2019-02-24T22:22:56.434Z,6.20
2019-02-24T22:25:26.932Z,6.20
2019-02-24T22:27:57.364Z,6.20
2019-02-24T22:30:27.843Z,6.10
2019-02-24T22:32:58.337Z,6.10
2019-02-24T22:35:28.752Z,6.10
2019-02-24T22:37:59.220Z,6.00
2019-02-24T22:40:29.676Z,6.00
2019-02-24T22:43:00.167Z,6.00
2019-02-24T22:45:30.622Z,6.00
2019-02-24T22:48:03.060Z,6.00
2019-02-24T22:50:33.263Z,6.00
2019-02-24T22:53:03.733Z,6.00
2019-02-24T22:55:34.160Z,6.00
2019-02-24T22:58:04.649Z,5.90
2019-02-24T23:00:58.690Z,5.90
2019-02-24T23:03:33.112Z,5.90
2019-02-24T23:06:03.549Z,5.80
2019-02-24T23:08:34.049Z,5.80
2019-02-24T23:11:04.514Z,5.80
2019-02-24T23:13:35.076Z,5.80
2019-02-24T23:16:05.575Z,5.80
2019-02-24T23:18:36.129Z,5.80
2019-02-24T23:21:06.579Z,5.70
2019-02-24T23:23:36.994Z,5.70
2019-02-24T23:26:07.476Z,5.70
2019-02-24T23:28:37.915Z,5.70
2019-02-24T23:31:08.372Z,5.60
2019-02-24T23:33:38.807Z,5.60
2019-02-24T23:36:09.261Z,5.60
2019-02-24T23:38:39.728Z,5.60
2019-02-24T23:41:10.875Z,5.60
2019-02-24T23:43:41.304Z,5.50
2019-02-24T23:46:11.847Z,5.50
2019-02-24T23:48:42.300Z,5.50
2019-02-24T23:51:12.779Z,5.50
2019-02-24T23:53:43.234Z,5.40
2019-02-24T23:56:13.698Z,5.40
2019-02-24T23:58:44.169Z,5.40
